Time;durP1;ratioP1;P1;durP2;ratioP2;P2;SDS_P1;SDS_P2;PMS_P1;PMS_P2;Temp;Humidity;BMP_temperature;BMP_pressure;BME280_temperature;BME280_humidity;BME280_pressure;Samples;Min_cycle;Max_cycle;Signal;HPM_P1;HPM_P2
2023/03/16 00:02:14;;;;;;;11.13;2.78;;;;;;;-2.10;100.00;101472.63;6204065;23;20024;-63
2023/03/16 00:04:41;;;;;;;17.00;2.83;;;;;;;-2.14;100.00;101476.28;6212285;23;20017;-63
2023/03/16 00:07:09;;;;;;;9.05;2.78;;;;;;;-2.19;100.00;101480.88;6210404;23;20045;-63
2023/03/16 00:09:40;;;;;;;15.98;2.88;;;;;;;-2.21;100.00;101477.44;6212019;23;20074;-62
2023/03/16 00:12:14;;;;;;;10.65;2.88;;;;;;;-2.27;100.00;101484.69;6210886;23;20070;-63
2023/03/16 00:14:42;;;;;;;12.35;2.72;;;;;;;-2.20;100.00;101475.66;6211418;23;20035;-63
2023/03/16 00:17:17;;;;;;;9.27;2.88;;;;;;;-2.25;100.00;101485.50;6212281;23;20075;-63
2023/03/16 00:19:55;;;;;;;11.70;2.90;;;;;;;-2.24;100.00;101480.16;6208476;23;20103;-63
2023/03/16 00:22:27;;;;;;;9.88;2.47;;;;;;;-2.26;100.00;101489.91;6210722;23;20047;-65
2023/03/16 00:24:53;;;;;;;11.48;3.15;;;;;;;-2.25;100.00;101494.22;6211358;23;20091;-67
2023/03/16 00:27:22;;;;;;;12.25;2.75;;;;;;;-2.21;100.00;101494.97;6212274;23;20099;-64
2023/03/16 00:29:54;;;;;;;14.80;3.28;;;;;;;-2.28;100.00;101489.09;6179099;23;20103;-64
2023/03/16 00:32:42;;;;;;;8.98;3.10;;;;;;;-2.34;100.00;101495.47;6209698;23;20361;-64
2023/03/16 00:35:08;;;;;;;11.55;2.92;;;;;;;-2.30;100.00;101492.69;6211350;23;20028;-64
2023/03/16 00:37:36;;;;;;;14.85;2.90;;;;;;;-2.37;100.00;101498.19;6211439;23;20027;-64
2023/03/16 00:40:04;;;;;;;8.88;3.13;;;;;;;-2.34;100.00;101487.56;6209586;23;20028;-64
2023/03/16 00:42:33;;;;;;;13.95;3.20;;;;;;;-2.38;100.00;101495.63;6210653;23;20458;-64
2023/03/16 00:45:00;;;;;;;14.70;2.63;;;;;;;-2.42;100.00;101492.25;6210406;23;20023;-64
2023/03/16 00:47:30;;;;;;;9.68;3.05;;;;;;;-2.46;100.00;101493.28;6209868;23;20095;-67
2023/03/16 00:49:57;;;;;;;12.00;2.60;;;;;;;-2.45;100.00;101481.84;6211413;23;20021;-69
2023/03/16 00:52:26;;;;;;;9.65;2.60;;;;;;;-2.45;100.00;101497.63;6211802;23;20112;-64
2023/03/16 00:54:54;;;;;;;18.88;3.58;;;;;;;-2.42;100.00;101497.50;6211575;23;20393;-66
2023/03/16 00:57:23;;;;;;;10.75;2.35;;;;;;;-2.45;100.00;101496.75;6210317;23;20056;-64
2023/03/16 00:59:50;;;;;;;11.93;2.70;;;;;;;-2.50;100.00;101499.56;6210708;23;20028;-64
2023/03/16 01:02:18;;;;;;;10.65;2.80;;;;;;;-2.48;100.00;101504.75;6208730;23;21452;-64
2023/03/16 01:04:45;;;;;;;16.02;3.58;;;;;;;-2.44;100.00;101504.59;6210343;23;20035;-64
2023/03/16 01:07:13;;;;;;;10.45;2.22;;;;;;;-2.48;100.00;101500.34;6206260;23;20406;-64
2023/03/16 01:09:41;;;;;;;10.88;2.72;;;;;;;-2.45;100.00;101505.50;6210279;23;20051;-64
2023/03/16 01:12:16;;;;;;;17.15;3.22;;;;;;;-2.51;100.00;101499.59;6181618;23;20096;-64
2023/03/16 01:14:44;;;;;;;13.13;3.10;;;;;;;-2.54;100.00;101502.38;6202919;23;20031;-64
2023/03/16 01:17:12;;;;;;;10.95;2.58;;;;;;;-2.59;100.00;101499.91;6210726;23;20016;-63
2023/03/16 01:19:40;;;;;;;14.05;2.83;;;;;;;-2.49;100.00;101501.28;6211763;23;20108;-63
2023/03/16 01:22:08;;;;;;;13.52;2.67;;;;;;;-2.52;100.00;101506.63;6210514;23;20066;-62
2023/03/16 01:24:35;;;;;;;11.95;2.95;;;;;;;-2.56;100.00;101505.03;6211556;23;20047;-63
2023/03/16 01:27:03;;;;;;;15.77;3.15;;;;;;;-2.54;100.00;101505.00;6211063;23;20397;-64
2023/03/16 01:29:30;;;;;;;9.88;3.05;;;;;;;-2.62;100.00;101500.00;6196934;23;20028;-64
2023/03/16 01:31:57;;;;;;;17.40;2.83;;;;;;;-2.57;100.00;101506.81;6186009;23;20019;-62
2023/03/16 01:34:23;;;;;;;9.93;2.60;;;;;;;-2.60;100.00;101500.81;6209827;23;20031;-63
2023/03/16 01:36:50;;;;;;;12.20;3.33;;;;;;;-2.63;100.00;101500.94;6210911;23;20074;-63
2023/03/16 01:39:17;;;;;;;11.27;2.30;;;;;;;-2.71;100.00;101505.63;6204516;23;20027;-63
2023/03/16 01:41:45;;;;;;;12.38;2.38;;;;;;;-2.72;100.00;101507.38;6209744;23;20027;-63
2023/03/16 01:44:14;;;;;;;17.08;2.65;;;;;;;-2.61;100.00;101501.75;6210973;23;20034;-65
2023/03/16 01:46:43;;;;;;;12.98;3.00;;;;;;;-2.65;100.00;101502.75;6210823;23;20024;-64
2023/03/16 01:49:09;;;;;;;14.57;2.30;;;;;;;-2.66;100.00;101507.16;6209753;23;20020;-63
2023/03/16 01:51:44;;;;;;;9.77;2.40;;;;;;;-2.65;100.00;101498.38;6211194;23;20020;-62
2023/03/16 01:54:26;;;;;;;12.07;2.95;;;;;;;-2.69;100.00;101499.38;6207651;23;20454;-65
2023/03/16 01:56:58;;;;;;;11.70;2.88;;;;;;;-2.72;100.00;101494.25;6210919;23;20078;-64
2023/03/16 01:59:30;;;;;;;14.00;3.20;;;;;;;-2.78;100.00;101498.88;6208832;23;20035;-63
2023/03/16 02:01:57;;;;;;;13.40;3.38;;;;;;;-2.83;100.00;101496.41;6207128;23;20040;-63
2023/03/16 02:04:30;;;;;;;16.02;3.03;;;;;;;-2.82;100.00;101498.13;6210247;23;20136;-64
2023/03/16 02:07:15;;;;;;;17.33;3.50;;;;;;;-2.86;100.00;101497.38;6211198;23;20458;-64
2023/03/16 02:09:45;;;;;;;8.77;3.10;;;;;;;-2.82;100.00;101493.72;6211629;23;20096;-63
2023/03/16 02:12:17;;;;;;;11.02;3.50;;;;;;;-2.91;100.00;101495.81;6208838;23;20020;-65
2023/03/16 02:14:45;;;;;;;9.93;2.40;;;;;;;-2.93;100.00;101495.84;6209189;23;20016;-66
2023/03/16 02:17:19;;;;;;;11.02;2.60;;;;;;;-2.86;100.00;101493.88;6211574;23;20095;-63
2023/03/16 02:19:58;;;;;;;13.73;3.30;;;;;;;-2.92;100.00;101481.84;6209692;23;20027;-63
2023/03/16 02:22:25;;;;;;;10.63;3.10;;;;;;;-2.97;100.00;101488.16;6210040;23;20044;-63
2023/03/16 02:24:53;;;;;;;7.68;2.42;;;;;;;-2.91;100.00;101487.94;6210626;23;20017;-64
2023/03/16 02:27:41;;;;;;;10.52;2.70;;;;;;;-2.95;100.00;101492.44;6204199;23;20031;-65
2023/03/16 02:30:13;;;;;;;19.85;4.53;;;;;;;-2.95;100.00;101494.22;6211267;23;20015;-64
2023/03/16 02:32:41;;;;;;;13.90;3.13;;;;;;;-3.01;100.00;101491.81;6211268;23;20042;-64
2023/03/16 02:35:09;;;;;;;10.98;2.70;;;;;;;-3.01;100.00;101492.66;6210867;23;20021;-64
2023/03/16 02:37:36;;;;;;;11.13;2.38;;;;;;;-2.98;100.00;101496.94;6210371;23;20024;-63
2023/03/16 02:40:26;;;;;;;10.63;2.58;;;;;;;-2.99;100.00;101498.72;6209549;23;20484;-64
2023/03/16 02:43:01;;;;;;;16.75;3.65;;;;;;;-2.96;100.00;101496.00;6210308;23;20338;-63
2023/03/16 02:45:35;;;;;;;12.52;2.80;;;;;;;-2.98;100.00;101505.69;6211002;23;20029;-63
2023/03/16 02:48:08;;;;;;;9.18;2.90;;;;;;;-3.04;100.00;101503.25;6210216;23;20020;-63
2023/03/16 02:50:34;;;;;;;12.50;2.47;;;;;;;-3.11;100.00;101501.78;6210432;23;21467;-63
2023/03/16 02:53:00;;;;;;;10.35;2.80;;;;;;;-3.29;100.00;101504.13;6210431;23;20365;-64
2023/03/16 02:55:27;;;;;;;15.48;2.85;;;;;;;-3.35;100.00;101503.47;6210624;23;20025;-63
2023/03/16 02:57:54;;;;;;;15.50;2.45;;;;;;;-3.34;100.00;101502.56;6206353;23;20104;-63
2023/03/16 03:00:20;;;;;;;13.75;2.67;;;;;;;-3.35;100.00;101504.31;6210205;23;20078;-65
2023/03/16 03:02:47;;;;;;;8.75;2.50;;;;;;;-3.38;100.00;101508.81;6190002;23;20041;-66
2023/03/16 03:05:14;;;;;;;14.07;2.88;;;;;;;-3.39;100.00;101505.34;6191040;23;20099;-65
2023/03/16 03:07:40;;;;;;;9.88;2.33;;;;;;;-3.45;100.00;101507.31;6210324;23;20123;-64
2023/03/16 03:10:07;;;;;;;14.52;2.78;;;;;;;-3.52;100.00;101519.75;6210563;23;20021;-64
2023/03/16 03:12:34;;;;;;;12.05;3.05;;;;;;;-3.44;100.00;101509.88;6210245;23;20048;-64
2023/03/16 03:15:00;;;;;;;9.50;2.92;;;;;;;-3.54;100.00;101516.34;6210492;23;20017;-64
2023/03/16 03:17:28;;;;;;;10.45;3.05;;;;;;;-3.58;100.00;101527.84;6212496;23;20409;-64
2023/03/16 03:20:01;;;;;;;11.40;2.83;;;;;;;-3.50;100.00;101527.59;6210954;23;20019;-64
2023/03/16 03:22:27;;;;;;;12.10;2.83;;;;;;;-3.39;100.00;101534.19;6211899;23;20026;-70
2023/03/16 03:24:54;;;;;;;12.50;4.07;;;;;;;-3.35;100.00;101524.44;6212077;23;20024;-71
2023/03/16 03:27:21;;;;;;;16.38;3.38;;;;;;;-3.43;100.00;101534.34;6212731;23;20513;-69
2023/03/16 03:29:47;;;;;;;13.02;3.00;;;;;;;-3.48;100.00;101534.50;6212845;23;20016;-70
2023/03/16 03:32:14;;;;;;;13.13;3.55;;;;;;;-3.53;100.00;101531.16;6213223;23;20509;-71
2023/03/16 03:34:41;;;;;;;11.77;3.20;;;;;;;-3.64;100.00;101533.28;6213829;23;20099;-70
2023/03/16 03:37:08;;;;;;;11.40;3.33;;;;;;;-3.61;100.00;101533.19;6213061;23;20032;-70
2023/03/16 03:39:35;;;;;;;14.13;2.88;;;;;;;-3.69;100.00;101529.94;6212159;23;20024;-71
2023/03/16 03:42:02;;;;;;;14.50;3.53;;;;;;;-3.67;100.00;101528.13;6210910;23;20024;-70
2023/03/16 03:44:31;;;;;;;11.25;3.15;;;;;;;-3.66;100.00;101538.56;6160526;23;20028;-70
2023/03/16 03:46:58;;;;;;;12.88;2.72;;;;;;;-3.67;100.00;101539.47;6213553;23;20417;-71
2023/03/16 03:49:24;;;;;;;9.48;3.20;;;;;;;-3.62;100.00;101536.69;6212970;23;20025;-69
2023/03/16 03:51:51;;;;;;;12.60;2.92;;;;;;;-3.53;100.00;101539.03;6203857;23;20445;-70
2023/03/16 03:54:17;;;;;;;6.57;3.05;;;;;;;-3.69;100.00;101535.19;6212964;23;20025;-67
2023/03/16 03:56:44;;;;;;;11.65;3.10;;;;;;;-3.75;100.00;101532.78;6214277;23;20021;-71
2023/03/16 03:59:10;;;;;;;12.70;3.08;;;;;;;-3.60;100.00;101535.75;6212285;23;20031;-70
2023/03/16 04:01:37;;;;;;;14.40;4.25;;;;;;;-3.68;100.00;101531.69;6212686;23;20021;-71
2023/03/16 04:04:03;;;;;;;9.48;3.42;;;;;;;-3.76;100.00;101537.13;6212037;23;20144;-70
2023/03/16 04:06:30;;;;;;;17.17;3.50;;;;;;;-3.81;100.00;101534.66;6186885;23;20449;-70
2023/03/16 04:08:56;;;;;;;14.68;3.20;;;;;;;-3.66;100.00;101535.09;6213331;23;20076;-71
2023/03/16 04:11:23;;;;;;;18.63;3.90;;;;;;;-3.62;100.00;101534.06;6213647;23;20101;-70
2023/03/16 04:13:52;;;;;;;17.00;2.92;;;;;;;-3.69;100.00;101529.94;6185293;23;20021;-69
2023/03/16 04:16:19;;;;;;;13.05;3.20;;;;;;;-3.74;100.00;101532.72;6199761;23;20091;-70
2023/03/16 04:18:46;;;;;;;9.73;2.97;;;;;;;-3.64;100.00;101538.53;6187330;23;20024;-70
2023/03/16 04:21:15;;;;;;;10.90;3.47;;;;;;;-3.70;100.00;101534.31;6212994;23;20096;-71
2023/03/16 04:23:42;;;;;;;17.65;3.53;;;;;;;-3.73;100.00;101537.03;6208624;23;20353;-71
2023/03/16 04:26:09;;;;;;;10.85;3.10;;;;;;;-3.73;100.00;101536.19;6211363;23;20035;-70
2023/03/16 04:28:36;;;;;;;12.68;2.85;;;;;;;-3.81;100.00;101532.03;6186166;23;20111;-70
2023/03/16 04:31:05;;;;;;;9.77;3.30;;;;;;;-3.73;100.00;101531.81;6213350;23;20013;-70
2023/03/16 04:33:34;;;;;;;15.80;3.28;;;;;;;-3.77;100.00;101532.81;6185920;23;20036;-71
2023/03/16 04:36:01;;;;;;;10.88;3.05;;;;;;;-3.83;100.00;101533.00;6212571;23;20031;-64
2023/03/16 04:38:29;;;;;;;12.40;3.20;;;;;;;-3.75;100.00;101535.41;6210916;23;20024;-63
2023/03/16 04:40:56;;;;;;;15.48;3.75;;;;;;;-3.89;100.00;101549.78;6211734;23;20039;-64
2023/03/16 04:43:22;;;;;;;9.30;3.50;;;;;;;-3.81;100.00;101541.69;6178753;23;20108;-64
2023/03/16 04:45:49;;;;;;;10.65;3.33;;;;;;;-3.81;100.00;101536.44;6206416;23;20095;-64
2023/03/16 04:48:16;;;;;;;19.75;6.20;;;;;;;-3.82;100.00;101540.81;6212221;23;20027;-63
2023/03/16 04:50:43;;;;;;;15.93;3.30;;;;;;;-3.78;100.00;101531.97;6212227;23;20096;-65
2023/03/16 04:53:09;;;;;;;7.30;2.78;;;;;;;-3.82;100.00;101540.81;6212199;23;20100;-62
2023/03/16 04:55:36;;;;;;;13.80;2.95;;;;;;;-3.83;100.00;101538.25;6206405;23;20025;-64
2023/03/16 04:58:02;;;;;;;18.02;3.90;;;;;;;-3.92;100.00;101541.16;6210555;23;20016;-64
2023/03/16 05:00:29;;;;;;;10.60;3.10;;;;;;;-3.80;100.00;101539.00;6211026;23;20378;-63
2023/03/16 05:02:56;;;;;;;12.73;3.38;;;;;;;-3.90;100.00;101545.44;6212172;23;20016;-64
2023/03/16 05:05:23;;;;;;;9.55;2.72;;;;;;;-3.95;100.00;101555.22;6210562;23;20031;-64
2023/03/16 05:07:50;;;;;;;20.70;3.53;;;;;;;-3.95;100.00;101555.22;6211757;23;20083;-65
2023/03/16 05:10:20;;;;;;;15.63;3.38;;;;;;;-3.94;100.00;101553.44;6211777;23;20020;-62
2023/03/16 05:12:47;;;;;;;8.37;2.97;;;;;;;-4.02;100.00;101551.91;6197071;23;20020;-64
2023/03/16 05:15:13;;;;;;;11.90;3.20;;;;;;;-4.04;100.00;101558.97;6210702;23;20243;-65
2023/03/16 05:17:41;;;;;;;13.50;3.17;;;;;;;-3.98;100.00;101555.31;6208728;23;20021;-62
2023/03/16 05:20:11;;;;;;;18.48;3.20;;;;;;;-4.09;100.00;101546.91;6210722;23;20021;-62
2023/03/16 05:22:51;;;;;;;16.90;3.30;;;;;;;-3.95;100.00;101551.75;6209870;23;20399;-65
2023/03/16 05:25:19;;;;;;;10.77;3.20;;;;;;;-4.05;100.00;101559.88;6211516;23;20026;-63
2023/03/16 05:27:49;;;;;;;14.07;3.10;;;;;;;-3.97;100.00;101550.91;6200281;23;20047;-63
2023/03/16 05:30:16;;;;;;;19.15;3.88;;;;;;;-4.09;100.00;101554.78;6211039;23;20048;-63
2023/03/16 05:32:44;;;;;;;20.42;3.30;;;;;;;-4.05;100.00;101564.25;6206103;23;20016;-63
2023/03/16 05:35:12;;;;;;;18.25;3.25;;;;;;;-4.05;100.00;101562.50;6209690;23;20405;-64
2023/03/16 05:37:42;;;;;;;11.63;2.95;;;;;;;-4.05;100.00;101564.25;6210937;23;20055;-64
2023/03/16 05:40:17;;;;;;;14.67;3.47;;;;;;;-4.03;100.00;101557.22;6209467;23;20501;-63
2023/03/16 05:42:45;;;;;;;12.57;3.40;;;;;;;-3.97;100.00;101559.63;6199321;23;20036;-62
2023/03/16 05:45:14;;;;;;;21.10;3.30;;;;;;;-3.99;100.00;101568.47;6210687;23;20027;-64
2023/03/16 05:47:42;;;;;;;11.80;3.72;;;;;;;-3.89;100.00;101570.75;6204752;23;20027;-63
2023/03/16 05:50:10;;;;;;;16.02;2.80;;;;;;;-4.03;100.00;101568.56;6206306;23;20493;-63
2023/03/16 05:52:38;;;;;;;13.00;3.58;;;;;;;-3.95;100.00;101565.69;6210694;23;20029;-64
2023/03/16 05:55:06;;;;;;;12.90;2.92;;;;;;;-3.81;100.00;101568.75;6209147;23;20016;-64
2023/03/16 05:57:33;;;;;;;17.88;3.33;;;;;;;-3.75;100.00;101570.34;6198963;23;20024;-63
2023/03/16 06:00:11;;;;;;;12.57;3.70;;;;;;;-3.74;100.00;101574.66;6208939;23;20446;-63
2023/03/16 06:02:38;;;;;;;16.85;3.47;;;;;;;-3.70;100.00;101573.66;6209838;23;20028;-64
2023/03/16 06:05:06;;;;;;;13.48;3.38;;;;;;;-3.69;100.00;101571.88;6210210;23;20023;-65
2023/03/16 06:07:33;;;;;;;13.85;3.72;;;;;;;-3.60;100.00;101576.84;6209620;23;20127;-65
2023/03/16 06:10:00;;;;;;;14.95;3.25;;;;;;;-3.81;100.00;101573.13;6209851;23;20111;-64
2023/03/16 06:12:27;;;;;;;9.52;3.42;;;;;;;-3.88;100.00;101579.47;6211181;23;20027;-64
2023/03/16 06:14:53;;;;;;;14.70;3.47;;;;;;;-3.82;100.00;101580.16;6207800;23;20027;-66
2023/03/16 06:17:20;;;;;;;15.07;3.75;;;;;;;-3.72;100.00;101582.47;6211354;23;20031;-65
2023/03/16 06:19:47;;;;;;;13.75;3.72;;;;;;;-3.64;100.00;101580.50;6209420;23;20027;-64
2023/03/16 06:22:13;;;;;;;11.35;4.45;;;;;;;-3.63;100.00;101584.81;6183097;23;20024;-65
2023/03/16 06:24:40;;;;;;;17.02;4.93;;;;;;;-3.58;100.00;101586.41;6209044;23;20044;-64
2023/03/16 06:27:06;;;;;;;18.80;4.45;;;;;;;-3.55;100.00;101595.91;6210968;23;20453;-64
2023/03/16 06:29:33;;;;;;;16.52;4.20;;;;;;;-3.51;100.00;101594.94;6210286;23;20103;-64
2023/03/16 06:32:00;;;;;;;18.42;4.38;;;;;;;-3.37;100.00;101594.50;6210311;23;20020;-64
2023/03/16 06:34:26;;;;;;;22.10;4.57;;;;;;;-3.39;100.00;101602.41;6210128;23;20025;-64
2023/03/16 06:36:52;;;;;;;15.23;3.70;;;;;;;-3.41;100.00;101599.00;6211038;23;20042;-66
2023/03/16 06:39:20;;;;;;;89.28;11.60;;;;;;;-3.48;100.00;101607.97;6212879;23;20095;-63
2023/03/16 06:41:46;;;;;;;37.67;5.28;;;;;;;-3.54;100.00;101611.63;6209995;23;20079;-62
2023/03/16 06:44:13;;;;;;;44.25;4.63;;;;;;;-3.48;100.00;101610.59;6209897;23;20412;-63
2023/03/16 06:46:39;;;;;;;16.00;3.10;;;;;;;-3.34;100.00;101611.00;6209975;23;20055;-63
2023/03/16 06:49:06;;;;;;;17.10;5.15;;;;;;;-3.01;100.00;101618.66;6210540;23;20025;-65
2023/03/16 06:51:32;;;;;;;20.20;4.05;;;;;;;-2.76;100.00;101616.06;6209854;23;20025;-64
2023/03/16 06:53:59;;;;;;;14.82;3.88;;;;;;;-2.46;100.00;101616.78;6211082;23;20021;-64
2023/03/16 06:56:26;;;;;;;12.27;3.90;;;;;;;-1.99;100.00;101624.72;6209957;23;20031;-62
2023/03/16 06:58:53;;;;;;;14.63;3.65;;;;;;;-1.68;100.00;101613.88;6210328;23;20107;-67
2023/03/16 07:01:20;;;;;;;15.00;3.55;;;;;;;-1.22;100.00;101616.47;6213003;23;20031;-70
2023/03/16 07:03:47;;;;;;;13.75;3.63;;;;;;;-0.37;100.00;101624.28;6212089;23;20031;-70
2023/03/16 07:06:14;;;;;;;21.83;4.85;;;;;;;0.22;100.00;101625.97;6212588;23;20033;-71
2023/03/16 07:08:41;;;;;;;13.15;3.35;;;;;;;0.49;100.00;101632.59;6213980;23;20115;-71
2023/03/16 07:11:08;;;;;;;10.93;3.53;;;;;;;0.75;100.00;101634.00;6210566;23;20020;-72
2023/03/16 07:13:35;;;;;;;14.55;3.20;;;;;;;1.24;100.00;101641.28;6209404;23;20025;-74
2023/03/16 07:16:03;;;;;;;13.25;3.08;;;;;;;1.48;99.52;101640.03;6210168;23;20354;-73
2023/03/16 07:18:30;;;;;;;12.95;3.45;;;;;;;2.24;93.43;101644.03;6208957;23;20355;-73
2023/03/16 07:20:57;;;;;;;9.38;3.22;;;;;;;2.19;85.76;101647.78;6209527;23;20524;-74
2023/03/16 07:23:24;;;;;;;11.82;3.90;;;;;;;2.88;83.54;101649.22;6208714;23;20021;-71
2023/03/16 07:25:51;;;;;;;9.98;3.53;;;;;;;2.48;81.07;101640.03;6209921;23;20067;-73
2023/03/16 07:28:18;;;;;;;8.75;2.90;;;;;;;2.46;77.69;101649.00;6209887;23;20047;-74
2023/03/16 07:30:46;;;;;;;14.25;4.47;;;;;;;3.44;73.36;101651.31;6209745;23;20480;-75
2023/03/16 07:33:31;;;;;;;13.07;3.70;;;;;;;3.96;70.92;101650.81;6209066;23;20021;-74
2023/03/16 07:35:58;;;;;;;11.60;2.78;;;;;;;4.93;66.16;101650.84;6210261;23;20025;-74
2023/03/16 07:38:24;;;;;;;15.25;3.22;;;;;;;5.17;64.01;101649.22;6209785;23;20032;-74
2023/03/16 07:40:51;;;;;;;11.43;2.97;;;;;;;5.15;62.87;101656.47;6183071;23;20125;-75
2023/03/16 07:43:18;;;;;;;11.82;3.05;;;;;;;5.82;60.64;101655.50;6212013;23;20040;-72
2023/03/16 07:45:51;;;;;;;13.60;2.70;;;;;;;5.95;58.30;101659.88;6214217;23;20327;-72
2023/03/16 07:48:18;;;;;;;20.65;4.95;;;;;;;6.58;56.27;101654.56;6214050;23;20031;-72
2023/03/16 07:50:47;;;;;;;11.27;3.22;;;;;;;6.82;54.14;101658.13;6214432;23;20080;-72
2023/03/16 07:53:15;;;;;;;14.68;3.65;;;;;;;6.93;53.29;101657.31;6212385;23;20155;-72
2023/03/16 07:55:43;;;;;;;13.40;2.90;;;;;;;6.11;53.48;101659.63;6213748;23;20044;-72
2023/03/16 07:58:10;;;;;;;10.13;2.53;;;;;;;5.28;56.07;101654.72;6212665;23;20016;-72
2023/03/16 08:00:37;;;;;;;10.30;2.47;;;;;;;5.61;55.51;101661.34;6212877;23;20052;-72
2023/03/16 08:03:04;;;;;;;12.88;2.53;;;;;;;5.36;55.75;101658.66;6205109;23;20068;-72
2023/03/16 08:05:31;;;;;;;10.45;2.05;;;;;;;5.45;55.36;101664.19;6214768;23;20044;-73
2023/03/16 08:07:58;;;;;;;12.55;2.33;;;;;;;5.81;54.19;101667.97;6214374;23;20024;-72
2023/03/16 08:10:24;;;;;;;9.82;2.40;;;;;;;6.07;53.20;101659.97;6216173;23;20032;-69
2023/03/16 08:12:51;;;;;;;10.95;2.42;;;;;;;5.54;53.60;101657.41;6215212;23;20025;-72
2023/03/16 08:15:18;;;;;;;9.35;1.80;;;;;;;5.97;53.71;101659.75;6187795;23;20020;-73
2023/03/16 08:17:45;;;;;;;13.13;2.70;;;;;;;5.45;53.62;101666.84;6214520;23;20035;-73
2023/03/16 08:20:13;;;;;;;12.82;2.70;;;;;;;6.13;53.08;101652.41;6211202;23;20040;-67
2023/03/16 08:22:44;;;;;;;16.65;2.88;;;;;;;5.88;52.57;101660.41;6211559;23;20028;-66
2023/03/16 08:25:12;;;;;;;9.30;2.35;;;;;;;6.44;52.23;101660.91;6209262;23;20601;-66
2023/03/16 08:27:39;;;;;;;11.93;2.65;;;;;;;6.53;50.83;101657.59;6210441;23;20104;-66
2023/03/16 08:30:10;;;;;;;8.23;2.00;;;;;;;7.31;49.39;101653.59;6209846;23;20040;-66
2023/03/16 08:32:38;;;;;;;8.93;2.38;;;;;;;7.61;49.31;101653.94;6209301;23;20107;-66
2023/03/16 08:35:15;;;;;;;11.02;2.80;;;;;;;7.59;47.67;101650.53;6209248;23;20096;-66
2023/03/16 08:37:42;;;;;;;12.23;2.50;;;;;;;7.19;47.58;101658.91;6206133;23;20349;-66
2023/03/16 08:40:12;;;;;;;10.07;2.25;;;;;;;7.27;47.17;101669.00;6209539;23;20044;-65
2023/03/16 08:42:40;;;;;;;9.30;2.47;;;;;;;7.30;46.61;101666.09;6209806;23;20096;-66
2023/03/16 08:45:08;;;;;;;12.07;2.58;;;;;;;8.21;46.10;101661.78;6209115;23;20092;-66
2023/03/16 08:47:39;;;;;;;7.70;2.88;;;;;;;8.35;45.44;101666.88;6208024;23;20098;-66
2023/03/16 08:50:07;;;;;;;10.75;2.05;;;;;;;8.43;45.06;101671.63;6209684;23;20024;-66
2023/03/16 08:52:35;;;;;;;10.15;2.20;;;;;;;8.53;44.21;101676.09;6208887;23;20099;-74
2023/03/16 08:55:04;;;;;;;11.30;2.60;;;;;;;8.53;43.59;101677.94;6209916;23;20021;-74
2023/03/16 08:57:32;;;;;;;13.93;2.45;;;;;;;8.95;43.52;101683.44;6209851;23;20059;-74
2023/03/16 08:59:59;;;;;;;15.15;2.30;;;;;;;8.70;43.91;101681.91;6209810;23;20350;-74
2023/03/16 09:02:26;;;;;;;13.27;2.53;;;;;;;9.31;42.75;101682.25;6210123;23;20024;-73
2023/03/16 09:04:53;;;;;;;8.85;2.50;;;;;;;8.92;42.42;101679.22;6211045;23;20100;-66
2023/03/16 09:07:20;;;;;;;13.50;2.05;;;;;;;8.84;42.41;101682.50;6210633;23;20032;-67
2023/03/16 09:09:47;;;;;;;11.98;2.20;;;;;;;8.59;42.55;101682.78;6195892;23;20027;-73
2023/03/16 09:12:14;;;;;;;11.90;2.35;;;;;;;9.32;41.44;101679.44;6213638;23;20454;-73
2023/03/16 09:14:40;;;;;;;14.23;3.33;;;;;;;9.05;41.45;101684.38;6214125;23;20434;-73
2023/03/16 09:17:07;;;;;;;14.52;3.53;;;;;;;8.92;41.03;101687.25;6213453;23;20136;-73
2023/03/16 09:19:33;;;;;;;11.15;2.95;;;;;;;8.20;41.02;101685.00;6212396;23;20096;-73
2023/03/16 09:22:17;;;;;;;12.25;2.50;;;;;;;7.77;41.67;101687.47;6214386;23;20141;-73
2023/03/16 09:24:44;;;;;;;10.68;2.90;;;;;;;9.02;40.83;101693.53;6165702;23;1121782;-73
2023/03/16 09:27:10;;;;;;;15.85;2.92;;;;;;;8.94;39.87;101692.44;6214404;23;20027;-73
2023/03/16 09:29:37;;;;;;;10.18;2.17;;;;;;;9.31;39.18;101690.28;6213968;23;20029;-73
2023/03/16 09:32:04;;;;;;;10.00;2.03;;;;;;;9.56;38.85;101689.91;6214327;23;20055;-72
2023/03/16 09:34:30;;;;;;;11.55;2.03;;;;;;;9.94;38.84;101690.31;6214067;23;20102;-73
2023/03/16 09:36:59;;;;;;;9.95;2.15;;;;;;;10.19;38.42;101686.34;6212205;23;20325;-73
2023/03/16 09:39:26;;;;;;;7.38;2.25;;;;;;;10.65;37.35;101693.03;6213434;23;20028;-70
2023/03/16 09:41:52;;;;;;;8.02;2.42;;;;;;;9.14;37.86;101699.69;6214901;23;20063;-72
2023/03/16 09:44:38;;;;;;;10.95;2.03;;;;;;;8.81;38.02;101705.97;6212642;23;20074;-73
2023/03/16 09:47:07;;;;;;;11.63;2.80;;;;;;;9.64;37.15;101704.50;6212465;23;20024;-73
2023/03/16 09:49:39;;;;;;;8.35;1.70;;;;;;;9.48;36.82;101703.13;6213807;23;20111;-72
2023/03/16 09:52:19;;;;;;;;;;;;;;;9.77;36.60;101702.47;6212591;23;20021;-73
2023/03/16 09:55:23;;;;;;;5.70;1.88;;;;;;;10.62;35.35;101701.38;6213020;23;19916;-73
2023/03/16 09:57:52;;;;;;;5.97;2.17;;;;;;;10.91;34.92;101699.59;6159110;23;20016;-73
2023/03/16 10:00:21;;;;;;;13.52;2.72;;;;;;;11.18;34.24;101700.75;6211914;23;20028;-71
2023/03/16 10:03:25;;;;;;;14.65;2.85;;;;;;;11.61;33.80;101691.41;6212220;23;20369;-74
2023/03/16 10:05:58;;;;;;;10.35;2.50;;;;;;;12.07;33.20;101687.09;6213207;23;20104;-72
2023/03/16 10:08:31;;;;;;;7.85;2.40;;;;;;;11.31;34.10;101685.22;6212155;23;20099;-72
2023/03/16 10:11:04;;;;;;;5.60;1.92;;;;;;;9.54;34.72;101697.25;6212225;23;20024;-71
2023/03/16 10:13:30;;;;;;;8.80;2.67;;;;;;;9.11;35.13;101691.91;6212694;23;20166;-72
2023/03/16 10:16:03;;;;;;;8.40;2.53;;;;;;;8.78;36.34;101688.38;6213026;23;20024;-71
2023/03/16 10:18:37;;;;;;;8.98;2.15;;;;;;;9.02;35.60;101682.84;6187079;23;20513;-73
2023/03/16 10:21:04;;;;;;;8.95;2.30;;;;;;;9.35;34.54;101681.00;6212128;23;20043;-71
2023/03/16 10:23:34;;;;;;;6.97;2.17;;;;;;;8.82;34.88;101688.97;6212179;23;20028;-71
2023/03/16 10:26:08;;;;;;;6.05;1.90;;;;;;;10.13;33.48;101692.22;6211326;23;20020;-72
2023/03/16 10:28:36;;;;;;;8.13;2.60;;;;;;;9.04;34.76;101686.22;6210342;23;20362;-72
2023/03/16 10:31:03;;;;;;;6.88;2.00;;;;;;;9.21;34.04;101684.81;6211460;23;20028;-72
2023/03/16 10:33:35;;;;;;;8.77;2.40;;;;;;;9.92;34.58;101678.84;6211622;23;20029;-71
2023/03/16 10:36:23;;;;;;;16.52;2.30;;;;;;;10.86;34.27;101684.88;6211930;23;20071;-74
2023/03/16 10:38:54;;;;;;;12.18;2.63;;;;;;;11.08;32.67;101673.91;6210935;23;20449;-71
2023/03/16 10:41:22;;;;;;;8.18;1.85;;;;;;;11.14;32.09;101678.72;6211403;23;20025;-73
2023/03/16 10:44:07;;;;;;;7.38;2.08;;;;;;;11.07;31.51;101671.38;6210319;23;20020;-73
2023/03/16 10:46:49;;;;;;;5.90;1.70;;;;;;;10.21;32.26;101662.94;6210818;23;20028;-73
2023/03/16 10:49:47;;;;;;;7.45;1.83;;;;;;;10.35;31.73;101667.91;6211614;23;20171;-71
2023/03/16 10:52:28;;;;;;;8.07;1.85;;;;;;;9.23;32.14;101673.97;6211839;23;20095;-73
2023/03/16 10:55:00;;;;;;;7.72;2.08;;;;;;;8.23;34.17;101662.53;6211904;23;20597;-72
2023/03/16 10:57:35;;;;;;;8.93;2.22;;;;;;;8.73;35.04;101668.28;6211336;23;20413;-72
2023/03/16 11:00:11;;;;;;;7.70;1.70;;;;;;;9.82;33.00;101667.22;6211424;23;20354;-73
2023/03/16 11:02:38;;;;;;;10.02;1.80;;;;;;;9.78;32.90;101669.31;6211128;23;20043;-73
2023/03/16 11:05:16;;;;;;;8.63;2.33;;;;;;;10.29;32.74;101671.13;6211590;23;20032;-73
2023/03/16 11:07:57;;;;;;;8.35;1.98;;;;;;;9.48;33.58;101670.13;6211065;23;20035;-73
2023/03/16 11:10:33;;;;;;;6.65;1.73;;;;;;;8.65;33.22;101670.75;6211694;23;20091;-73
2023/03/16 11:13:11;;;;;;;;;;;;;;;8.82;32.65;101664.88;6169803;23;20024;-71
2023/03/16 11:15:55;;;;;;;12.18;1.70;;;;;;;8.60;32.82;101661.25;6210212;23;19916;-73
2023/03/16 11:18:29;;;;;;;6.50;1.98;;;;;;;8.80;34.04;101658.78;6211062;23;20096;-73
2023/03/16 11:21:05;;;;;;;7.75;1.58;;;;;;;9.27;33.32;101651.38;6209485;23;20053;-73
2023/03/16 11:23:36;;;;;;;9.30;1.65;;;;;;;9.19;33.84;101648.44;6211354;23;20108;-73
2023/03/16 11:26:14;;;;;;;6.18;1.60;;;;;;;10.30;33.52;101632.59;6209054;23;20052;-66
2023/03/16 11:28:47;;;;;;;9.95;1.85;;;;;;;10.72;33.04;101640.50;6209860;23;20027;-66